Rechercher aéroport 
image banner adimage banner adimage banner ad
image banner ad

PA40 - Benton

Situé à Benton, United States

ICAO - PA40, IATA -

Données fournies par Airmate  

Information générale

Coordonnées: N41°12'0" W76°23'14"
Élévation : 780 feet MSL.
Variation magnétique : -11° East
Voir autres Aéroports à Pennsylvania

Données opérationnelles

Special qualification required
Heure actuelle UTC:
Heure actuelle locale:
Météo à : KHZL - Hazleton Rgnl ( 41 km )
METAR: KHZL 291635Z AUTO 16006KT 7SM OVC007 21/18 A2999 RMK AO2
Voir NOTAMs / SUP AIP / TFR affectant cet aéroport [VIEW]
Fréquences de communication: [VIEW]

Pistes:

Identifiant RWYQFULongueur (ft)Largeur (ft)SurfaceLDA (ft)
032200150GRASS
212200150GRASS

Coordonnées de l'aéroport

Adresse: Benton United States

Vue satellite de PA40